Time;durP1;ratioP1;P1;durP2;ratioP2;P2;SDS_P1;SDS_P2;PMS_P1;PMS_P2;Temp;Humidity;BMP_temperature;BMP_pressure;BME280_temperature;BME280_humidity;BME280_pressure;Samples;Min_cycle;Max_cycle;Signal;HPM_P1;HPM_P2
2023/02/09 00:02:02;;;;;;;20.35;2.80;;;-2.10;99.90;;;;;;4422350;32;20061;-61
2023/02/09 00:04:28;;;;;;;1.65;1.23;;;-2.10;99.90;;;;;;4422355;32;20431;-62
2023/02/09 00:06:53;;;;;;;1.45;1.35;;;-2.10;99.90;;;;;;4406501;32;20088;-61
2023/02/09 00:09:18;;;;;;;0.57;0.57;;;-2.10;99.90;;;;;;4421814;32;20529;-62
2023/02/09 00:13:44;;;;;;;1.10;1.02;;;-2.10;99.90;;;;;;4418402;32;20482;-62
2023/02/09 00:14:32;;;;;;;0.52;0.52;;;-2.10;99.90;;;;;;4399732;32;20925;-62
2023/02/09 00:17:00;;;;;;;1.20;1.20;;;-2.00;99.90;;;;;;4407836;32;21275;-61
2023/02/09 00:19:25;;;;;;;1.85;1.60;;;-1.90;99.90;;;;;;4405360;32;20494;-62
2023/02/09 00:21:51;;;;;;;0.88;0.88;;;-2.00;99.90;;;;;;4404324;32;20062;-61
2023/02/09 00:24:16;;;;;;;1.25;1.15;;;-2.00;99.90;;;;;;4421797;32;20168;-61
2023/02/09 00:26:43;;;;;;;0.60;0.60;;;-2.00;99.90;;;;;;4424016;32;20074;-61
2023/02/09 00:29:08;;;;;;;0.70;0.70;;;-2.00;99.90;;;;;;4408192;32;20073;-60
2023/02/09 00:31:34;;;;;;;1.58;1.48;;;-2.10;99.90;;;;;;4406335;32;20096;-60
2023/02/09 00:34:01;;;;;;;0.77;0.77;;;-2.10;99.90;;;;;;4408571;32;20073;-61
2023/02/09 00:36:27;;;;;;;0.95;0.95;;;-2.10;99.90;;;;;;4419121;32;20473;-61
2023/02/09 00:38:55;;;;;;;1.35;1.25;;;-2.10;99.90;;;;;;4407638;32;20124;-62
2023/02/09 00:42:04;;;;;;;3.45;1.10;;;-2.10;99.90;;;;;;4407412;32;20069;-60
2023/02/09 00:44:06;;;;;;;0.70;0.70;;;-2.20;99.90;;;;;;4399457;32;20074;-60
2023/02/09 00:46:31;;;;;;;1.10;1.05;;;-2.20;99.90;;;;;;4407853;32;20057;-61
2023/02/09 00:48:57;;;;;;;2.33;1.80;;;-2.20;99.90;;;;;;4420880;32;20078;-61
2023/02/09 00:51:22;;;;;;;0.60;0.60;;;-2.30;99.90;;;;;;4423305;32;20066;-62
2023/02/09 00:53:48;;;;;;;0.77;0.77;;;-2.30;99.90;;;;;;4422417;32;20073;-63
2023/02/09 00:56:14;;;;;;;3.35;1.23;;;-2.30;99.90;;;;;;4423040;32;20083;-61
2023/02/09 00:58:40;;;;;;;1.85;1.50;;;-2.40;99.90;;;;;;4422841;32;20060;-62
2023/02/09 01:01:05;;;;;;;0.90;0.90;;;-2.40;99.90;;;;;;4423474;32;20145;-62
2023/02/09 01:03:30;;;;;;;0.47;0.47;;;-2.40;99.90;;;;;;4424995;32;20180;-62
2023/02/09 01:05:57;;;;;;;1.17;1.17;;;-2.40;99.90;;;;;;4425032;32;20065;-61
2023/02/09 01:08:23;;;;;;;3.30;2.05;;;-2.40;99.90;;;;;;4423323;32;20544;-62
2023/02/09 01:10:48;;;;;;;0.52;0.52;;;-2.50;99.90;;;;;;4424407;32;20081;-61
2023/02/09 01:13:14;;;;;;;0.60;0.60;;;-2.50;99.90;;;;;;4422970;32;20592;-62
2023/02/09 01:15:39;;;;;;;0.50;0.50;;;-2.60;99.90;;;;;;4424954;32;20062;-63
2023/02/09 01:18:06;;;;;;;0.73;0.73;;;-2.60;99.90;;;;;;4422043;32;20233;-60
2023/02/09 01:20:32;;;;;;;0.60;0.60;;;-2.60;99.90;;;;;;4425943;32;20070;-61
2023/02/09 01:22:58;;;;;;;0.75;0.75;;;-2.60;99.90;;;;;;4408120;32;20133;-60
2023/02/09 01:25:23;;;;;;;0.85;0.85;;;-2.60;99.90;;;;;;4425324;32;20102;-61
2023/02/09 01:27:49;;;;;;;1.02;1.00;;;-2.60;99.90;;;;;;4423863;32;20068;-61
2023/02/09 01:30:14;;;;;;;0.73;0.73;;;-2.70;99.90;;;;;;4423638;32;20093;-61
2023/02/09 01:32:40;;;;;;;0.80;0.80;;;-2.70;99.90;;;;;;4409893;32;20077;-62
2023/02/09 01:35:06;;;;;;;0.88;0.88;;;-2.70;99.90;;;;;;4424569;32;20057;-61
2023/02/09 01:37:33;;;;;;;1.33;0.95;;;-2.60;99.90;;;;;;4424597;32;20081;-61
2023/02/09 01:39:59;;;;;;;2.35;2.15;;;-2.70;99.90;;;;;;4423955;32;20103;-61
2023/02/09 01:42:24;;;;;;;4.12;2.47;;;-2.70;99.90;;;;;;4423876;32;20101;-62
2023/02/09 01:45:30;;;;;;;0.60;0.60;;;-2.70;99.90;;;;;;4408633;32;20110;-62
2023/02/09 01:48:00;;;;;;;0.60;0.60;;;-2.70;99.90;;;;;;4403627;32;20068;-62
2023/02/09 01:50:29;;;;;;;0.60;0.60;;;-2.80;99.90;;;;;;4408926;32;20150;-62
2023/02/09 01:52:55;;;;;;;1.02;1.02;;;-2.80;99.90;;;;;;4409727;32;20434;-60
2023/02/09 01:55:24;;;;;;;0.65;0.65;;;-2.80;99.90;;;;;;4423555;32;20396;-63
2023/02/09 01:57:56;;;;;;;0.60;0.60;;;-2.80;99.90;;;;;;4422700;32;20480;-61
2023/02/09 02:00:22;;;;;;;1.40;1.30;;;-2.80;99.90;;;;;;4408855;32;20073;-61
2023/02/09 02:02:54;;;;;;;0.70;0.70;;;-2.90;99.90;;;;;;4407048;32;20061;-61
2023/02/09 02:05:21;;;;;;;12.98;3.20;;;-3.00;99.90;;;;;;4424843;32;20669;-62
2023/02/09 02:08:09;;;;;;;0.62;0.62;;;-3.10;99.90;;;;;;4422780;32;20371;-62
2023/02/09 02:10:35;;;;;;;1.27;1.02;;;-3.10;99.90;;;;;;4409027;32;20540;-61
2023/02/09 02:13:01;;;;;;;0.50;0.50;;;-3.10;99.90;;;;;;4423094;32;20124;-62
2023/02/09 02:15:36;;;;;;;2.83;1.17;;;-3.20;99.90;;;;;;4424290;32;20491;-61
2023/02/09 02:18:05;;;;;;;0.80;0.80;;;-3.20;99.90;;;;;;4409959;32;20073;-61
2023/02/09 02:21:04;;;;;;;0.40;0.40;;;-3.10;99.90;;;;;;4423926;32;20097;-61
2023/02/09 02:24:01;;;;;;;0.70;0.70;;;-3.20;99.90;;;;;;4412424;32;20124;-62
2023/02/09 02:26:55;;;;;;;0.98;0.98;;;-3.10;99.90;;;;;;4413401;32;20119;-61
2023/02/09 02:30:02;;;;;;;1.80;1.05;;;-3.20;99.90;;;;;;4411541;32;20085;-61
2023/02/09 02:32:34;;;;;;;0.50;0.50;;;-3.10;99.90;;;;;;4404128;32;20120;-61
2023/02/09 02:35:23;;;;;;;0.77;0.77;;;-3.00;99.90;;;;;;4423626;32;20545;-62
2023/02/09 02:38:17;;;;;;;8.38;2.20;;;-3.00;99.90;;;;;;4410633;32;20097;-61
2023/02/09 02:40:54;;;;;;;1.80;1.70;;;-3.10;99.90;;;;;;4410101;32;20211;-61
2023/02/09 02:43:44;;;;;;;0.50;0.50;;;-3.30;99.90;;;;;;4407319;32;20061;-61
2023/02/09 02:46:25;;;;;;;0.73;0.73;;;-3.40;99.90;;;;;;4412649;32;20380;-62
2023/02/09 02:48:55;;;;;;;0.80;0.80;;;-3.40;99.90;;;;;;4422058;32;20884;-61
2023/02/09 02:51:28;;;;;;;0.60;0.60;;;-3.50;99.90;;;;;;4409372;32;20561;-61
2023/02/09 02:53:59;;;;;;;1.02;1.02;;;-3.50;99.90;;;;;;4424886;32;20065;-61
2023/02/09 02:56:32;;;;;;;1.65;1.50;;;-3.50;99.90;;;;;;4409336;32;20139;-63
2023/02/09 02:59:00;;;;;;;1.98;1.77;;;-3.60;99.90;;;;;;4408862;32;20084;-60
2023/02/09 03:01:32;;;;;;;2.92;2.12;;;-3.50;99.90;;;;;;4409614;32;20078;-61
2023/02/09 03:04:00;;;;;;;1.35;1.25;;;-3.50;99.90;;;;;;4422249;32;20115;-62
2023/02/09 03:06:26;;;;;;;4.40;1.50;;;-3.50;99.90;;;;;;4422067;32;20139;-61
2023/02/09 03:08:54;;;;;;;1.08;0.90;;;-3.50;99.90;;;;;;4408757;32;20094;-61
2023/02/09 03:11:23;;;;;;;0.50;0.50;;;-3.50;99.90;;;;;;4396393;32;20097;-61
2023/02/09 03:14:00;;;;;;;0.60;0.60;;;-3.40;99.90;;;;;;4408380;32;20105;-61
2023/02/09 03:16:36;;;;;;;1.77;1.67;;;-3.40;99.90;;;;;;4423335;32;20540;-62
2023/02/09 03:19:15;;;;;;;0.50;0.50;;;-3.40;99.90;;;;;;4397853;32;20057;-61
2023/02/09 03:22:05;;;;;;;0.88;0.88;;;-3.50;99.90;;;;;;4405227;32;20092;-61
2023/02/09 03:24:36;;;;;;;1.05;1.02;;;-3.30;99.90;;;;;;4405069;32;20544;-61
2023/02/09 03:27:18;;;;;;;0.80;0.80;;;-3.00;99.90;;;;;;4407061;32;20061;-61
2023/02/09 03:29:47;;;;;;;7.15;2.35;;;-3.10;99.90;;;;;;4405418;32;20090;-60
2023/02/09 03:32:14;;;;;;;0.82;0.82;;;-3.20;99.90;;;;;;4407071;32;20061;-59
2023/02/09 03:34:40;;;;;;;0.70;0.70;;;-3.30;99.90;;;;;;4421895;32;20455;-61
2023/02/09 03:37:06;;;;;;;0.82;0.82;;;-3.40;99.90;;;;;;4422188;32;20470;-62
2023/02/09 03:39:32;;;;;;;0.90;0.90;;;-3.40;99.90;;;;;;4421889;32;20148;-62
2023/02/09 03:41:57;;;;;;;1.50;1.40;;;-3.50;99.90;;;;;;4422637;32;20147;-62
2023/02/09 03:44:25;;;;;;;0.62;0.62;;;-3.60;99.90;;;;;;4423002;32;20143;-62
2023/02/09 03:46:54;;;;;;;0.50;0.50;;;-3.60;99.90;;;;;;4420076;32;20609;-62
2023/02/09 03:49:19;;;;;;;0.62;0.62;;;-3.50;99.90;;;;;;4420652;32;20488;-63
2023/02/09 03:51:45;;;;;;;1.30;1.20;;;-3.50;99.90;;;;;;4423027;32;20096;-63
2023/02/09 03:54:10;;;;;;;0.60;0.60;;;-3.50;99.90;;;;;;4421067;32;20085;-61
2023/02/09 03:56:36;;;;;;;2.72;1.77;;;-3.50;99.90;;;;;;4422644;32;20440;-62
2023/02/09 03:59:03;;;;;;;0.68;0.68;;;-3.50;99.90;;;;;;4420468;32;20097;-60
2023/02/09 04:01:29;;;;;;;1.27;1.20;;;-3.50;99.90;;;;;;4410039;32;20127;-62
2023/02/09 04:03:54;;;;;;;0.50;0.50;;;-3.60;99.90;;;;;;4422210;32;20309;-61
2023/02/09 04:06:20;;;;;;;0.93;0.93;;;-3.60;99.90;;;;;;4422427;32;20082;-62
2023/02/09 04:08:46;;;;;;;0.50;0.50;;;-3.50;99.90;;;;;;4422566;32;20107;-61
2023/02/09 04:11:11;;;;;;;0.65;0.65;;;-3.60;99.90;;;;;;4422093;32;20086;-61
2023/02/09 04:13:36;;;;;;;1.05;1.05;;;-3.60;99.90;;;;;;4422869;32;20109;-62
2023/02/09 04:16:02;;;;;;;0.47;0.47;;;-3.70;99.90;;;;;;4423631;32;20102;-62
2023/02/09 04:18:27;;;;;;;2.60;2.08;;;-3.80;99.90;;;;;;4407247;32;20074;-63
2023/02/09 04:20:53;;;;;;;0.50;0.50;;;-3.80;99.90;;;;;;4422648;32;20113;-63
2023/02/09 04:23:19;;;;;;;0.43;0.43;;;-3.80;99.90;;;;;;4419471;32;21181;-61
2023/02/09 04:25:44;;;;;;;2.47;2.05;;;-3.80;99.90;;;;;;4422991;32;20085;-62
2023/02/09 04:28:09;;;;;;;0.88;0.88;;;-3.80;99.90;;;;;;4423427;32;20078;-63
2023/02/09 04:30:35;;;;;;;0.93;0.93;;;-3.80;99.90;;;;;;4420770;32;20602;-62
2023/02/09 04:33:00;;;;;;;0.85;0.85;;;-3.80;99.90;;;;;;4421358;32;20277;-62
2023/02/09 04:35:26;;;;;;;0.50;0.50;;;-3.80;99.90;;;;;;4422215;32;20516;-60
2023/02/09 04:37:51;;;;;;;0.80;0.80;;;-3.70;99.90;;;;;;4421277;32;20097;-63
2023/02/09 04:40:17;;;;;;;0.50;0.50;;;-3.90;99.90;;;;;;4420310;32;20136;-62
2023/02/09 04:42:45;;;;;;;1.00;0.98;;;-3.90;99.90;;;;;;4418575;32;20120;-61
2023/02/09 04:45:10;;;;;;;0.65;0.65;;;-3.80;99.90;;;;;;4422318;32;20065;-59
2023/02/09 04:47:36;;;;;;;1.58;1.33;;;-3.80;99.90;;;;;;4421089;32;20136;-62
2023/02/09 04:50:02;;;;;;;0.77;0.77;;;-3.80;99.90;;;;;;4408016;32;21680;-62
2023/02/09 04:52:27;;;;;;;0.90;0.90;;;-3.80;99.90;;;;;;4406461;32;20147;-61
2023/02/09 04:54:52;;;;;;;0.90;0.90;;;-3.70;99.90;;;;;;4423166;32;20061;-62
2023/02/09 04:59:33;;;;;;;1.23;1.15;;;-3.80;99.90;;;;;;4420709;32;20137;-62
2023/02/09 05:00:04;;;;;;;0.60;0.60;;;-3.80;99.90;;;;;;4410266;32;20065;-60
2023/02/09 05:02:29;;;;;;;0.50;0.50;;;-3.70;99.90;;;;;;4421046;32;20441;-63
2023/02/09 05:04:55;;;;;;;0.95;0.95;;;-3.70;99.90;;;;;;4422727;32;20165;-61
2023/02/09 05:07:22;;;;;;;1.30;1.20;;;-3.70;99.90;;;;;;4421332;32;20085;-63
2023/02/09 05:09:47;;;;;;;1.05;1.05;;;-3.50;99.90;;;;;;4421403;32;20560;-63
2023/02/09 05:12:13;;;;;;;0.80;0.80;;;-3.40;99.90;;;;;;4421559;32;20133;-63
2023/02/09 05:14:38;;;;;;;0.50;0.50;;;-3.50;99.90;;;;;;4407342;32;20586;-61
2023/02/09 05:17:04;;;;;;;0.82;0.82;;;-3.60;99.90;;;;;;4422903;32;20212;-61
2023/02/09 05:19:29;;;;;;;0.50;0.50;;;-3.50;99.90;;;;;;4423693;32;20082;-62
2023/02/09 05:21:55;;;;;;;0.70;0.70;;;-3.50;99.90;;;;;;4414786;32;20097;-61
2023/02/09 05:24:20;;;;;;;0.73;0.73;;;-3.30;99.90;;;;;;4419793;32;20090;-61
2023/02/09 05:26:46;;;;;;;0.50;0.50;;;-3.30;99.90;;;;;;4423815;32;20069;-61
2023/02/09 05:29:11;;;;;;;1.67;1.58;;;-3.30;99.90;;;;;;4420378;32;20768;-62
2023/02/09 05:31:37;;;;;;;0.50;0.50;;;-3.40;99.90;;;;;;4421101;32;20065;-61
2023/02/09 05:34:02;;;;;;;0.70;0.70;;;-3.30;99.90;;;;;;4423872;32;20667;-62
2023/02/09 05:36:27;;;;;;;0.50;0.50;;;-3.20;99.90;;;;;;4423900;32;20302;-61
2023/02/09 05:38:53;;;;;;;0.40;0.40;;;-3.10;99.90;;;;;;4424402;32;20069;-62
2023/02/09 05:42:18;;;;;;;3.15;1.40;;;-3.10;99.90;;;;;;4423490;32;20086;-61
2023/02/09 05:44:04;;;;;;;0.77;0.77;;;-3.20;99.90;;;;;;4412477;32;20144;-61
2023/02/09 05:46:29;;;;;;;0.50;0.50;;;-3.00;99.90;;;;;;4423798;32;20069;-62
2023/02/09 05:48:55;;;;;;;0.50;0.50;;;-2.90;99.90;;;;;;4422655;32;21147;-62
2023/02/09 05:51:20;;;;;;;0.50;0.50;;;-3.00;99.90;;;;;;4421584;32;20143;-61
2023/02/09 05:53:46;;;;;;;0.95;0.95;;;-3.10;99.90;;;;;;4423292;32;20065;-61
2023/02/09 05:56:11;;;;;;;0.75;0.75;;;-3.10;99.90;;;;;;4423376;32;20563;-62
2023/02/09 05:58:37;;;;;;;0.82;0.82;;;-3.20;99.90;;;;;;4424023;32;20707;-62
2023/02/09 06:01:04;;;;;;;0.88;0.88;;;-3.00;99.90;;;;;;4419313;32;20107;-62
2023/02/09 06:03:30;;;;;;;2.72;0.70;;;-3.00;99.90;;;;;;4418458;32;20513;-62
2023/02/09 06:05:55;;;;;;;0.55;0.55;;;-3.00;99.90;;;;;;4405760;32;21286;-62
2023/02/09 06:08:21;;;;;;;1.45;1.02;;;-3.10;99.90;;;;;;4406411;32;20085;-62
2023/02/09 06:10:46;;;;;;;1.17;1.12;;;-3.10;99.90;;;;;;4419803;32;20710;-62
2023/02/09 06:13:11;;;;;;;3.60;1.95;;;-3.20;99.90;;;;;;4421374;32;20129;-62
2023/02/09 06:15:37;;;;;;;0.60;0.60;;;-3.20;99.90;;;;;;4423252;32;20069;-62
2023/02/09 06:18:03;;;;;;;0.60;0.60;;;-3.20;99.90;;;;;;4405951;32;20065;-61
2023/02/09 06:20:28;;;;;;;1.40;1.35;;;-3.20;99.90;;;;;;4419964;32;20086;-62
2023/02/09 06:22:53;;;;;;;3.03;1.55;;;-3.20;99.90;;;;;;4402360;32;20097;-61
2023/02/09 06:25:19;;;;;;;0.55;0.55;;;-3.10;99.90;;;;;;4418790;32;20077;-62
2023/02/09 06:27:45;;;;;;;3.00;1.87;;;-3.00;99.90;;;;;;4407327;32;20086;-62
2023/02/09 06:30:11;;;;;;;0.50;0.50;;;-3.10;99.90;;;;;;4407807;32;20696;-62
2023/02/09 06:32:36;;;;;;;0.98;0.98;;;-3.20;99.90;;;;;;4394999;32;20085;-61
2023/02/09 06:35:03;;;;;;;1.30;1.20;;;-3.40;99.90;;;;;;4415039;32;20093;-62
2023/02/09 06:37:28;;;;;;;0.85;0.85;;;-3.30;99.90;;;;;;4387996;32;20156;-63
2023/02/09 06:39:54;;;;;;;0.98;0.98;;;-3.10;99.90;;;;;;4412421;32;20101;-62
2023/02/09 06:42:20;;;;;;;1.67;1.58;;;-3.00;99.90;;;;;;4408533;32;20097;-62
2023/02/09 06:44:45;;;;;;;0.50;0.50;;;-3.00;99.90;;;;;;4410943;32;20513;-62
2023/02/09 06:47:11;;;;;;;4.93;2.42;;;-2.90;99.90;;;;;;4410975;32;20609;-61
2023/02/09 06:49:36;;;;;;;5.28;1.48;;;-3.00;99.90;;;;;;4408199;32;20061;-63
2023/02/09 06:52:02;;;;;;;6.53;1.52;;;-3.10;99.90;;;;;;4406811;32;20274;-63
2023/02/09 06:54:28;;;;;;;0.80;0.80;;;-3.20;99.90;;;;;;4389177;32;20105;-61
2023/02/09 06:56:54;;;;;;;0.65;0.65;;;-3.10;99.90;;;;;;4400398;32;20559;-63
2023/02/09 06:59:20;;;;;;;2.37;2.05;;;-3.00;99.90;;;;;;4380562;32;20101;-63
2023/02/09 07:01:47;;;;;;;0.75;0.75;;;-2.90;99.90;;;;;;4378266;32;20223;-63
2023/02/09 07:04:13;;;;;;;2.75;1.80;;;-2.90;99.90;;;;;;4377634;32;20125;-63
2023/02/09 07:06:38;;;;;;;0.60;0.60;;;-2.90;99.90;;;;;;4379155;32;21027;-63
2023/02/09 07:09:04;;;;;;;0.50;0.50;;;-2.90;99.90;;;;;;4368526;32;20524;-63
2023/02/09 07:11:30;;;;;;;2.53;1.60;;;-2.90;99.90;;;;;;4382767;32;20185;-61
2023/02/09 07:13:56;;;;;;;4.78;1.48;;;-2.80;99.90;;;;;;4385830;32;21362;-62
2023/02/09 07:16:21;;;;;;;1.35;1.25;;;-2.70;99.90;;;;;;4388978;32;20114;-60
2023/02/09 07:18:47;;;;;;;0.65;0.65;;;-2.70;99.90;;;;;;4389267;32;20247;-62
2023/02/09 07:21:17;;;;;;;0.60;0.60;;;-2.70;99.90;;;;;;4386288;32;21032;-62
2023/02/09 07:23:42;;;;;;;2.92;2.05;;;-2.60;99.90;;;;;;4373081;32;20097;-64
2023/02/09 07:26:12;;;;;;;0.70;0.70;;;-2.60;99.90;;;;;;4375894;32;20105;-63
2023/02/09 07:28:38;;;;;;;0.80;0.80;;;-2.70;99.90;;;;;;4390377;32;20113;-64
2023/02/09 07:31:06;;;;;;;1.52;0.95;;;-2.70;99.90;;;;;;4379134;32;20135;-63
2023/02/09 07:33:32;;;;;;;1.25;1.10;;;-2.60;99.90;;;;;;4373704;32;20096;-63
2023/02/09 07:35:58;;;;;;;0.55;0.55;;;-2.50;99.90;;;;;;4368683;32;21072;-62
2023/02/09 07:38:23;;;;;;;0.95;0.95;;;-2.40;99.90;;;;;;4358694;32;20093;-62
2023/02/09 07:40:50;;;;;;;0.70;0.70;;;-2.40;99.90;;;;;;4365251;32;20085;-62
2023/02/09 07:43:15;;;;;;;0.70;0.70;;;-2.50;99.90;;;;;;4388001;32;20147;-62
2023/02/09 07:45:41;;;;;;;0.50;0.50;;;-2.40;99.90;;;;;;4366043;32;20102;-62
2023/02/09 07:48:09;;;;;;;1.20;1.08;;;-2.30;99.90;;;;;;4373688;32;20169;-63
2023/02/09 07:50:34;;;;;;;0.60;0.60;;;-2.40;99.90;;;;;;4372122;32;20090;-63
2023/02/09 07:53:00;;;;;;;0.50;0.50;;;-2.50;99.90;;;;;;4382968;32;20077;-63
2023/02/09 07:55:25;;;;;;;1.15;1.05;;;-2.40;99.90;;;;;;4373911;32;20554;-62
2023/02/09 07:57:51;;;;;;;1.48;1.02;;;-2.30;99.90;;;;;;4372873;32;20101;-63
2023/02/09 08:00:17;;;;;;;2.22;1.20;;;-2.20;99.90;;;;;;4375080;32;20101;-63
2023/02/09 08:02:44;;;;;;;0.68;0.68;;;-2.30;99.90;;;;;;4367985;32;20845;-63
2023/02/09 08:05:18;;;;;;;0.57;0.57;;;-2.10;99.90;;;;;;4344640;32;20078;-64
2023/02/09 08:07:44;;;;;;;2.20;1.73;;;-2.00;99.90;;;;;;4353368;32;20750;-64
2023/02/09 08:10:09;;;;;;;1.02;1.02;;;-1.90;99.90;;;;;;4372555;32;20101;-64
2023/02/09 08:13:06;;;;;;;4.20;2.22;;;-1.90;99.90;;;;;;4380191;32;20179;-63
2023/02/09 08:15:21;;;;;;;0.90;0.90;;;-1.90;99.90;;;;;;4367167;32;20334;-64
2023/02/09 08:17:51;;;;;;;0.70;0.70;;;-1.80;99.90;;;;;;4364618;32;20188;-61
2023/02/09 08:20:22;;;;;;;1.05;1.02;;;-1.70;99.90;;;;;;4369078;32;20787;-61
2023/02/09 08:22:49;;;;;;;;;;;-1.60;99.90;;;;;;4361335;32;20106;-62
2023/02/09 08:25:18;;;;;;;0.60;0.60;;;-1.60;99.90;;;;;;4383571;32;19965;-62
2023/02/09 08:27:44;;;;;;;0.40;0.40;;;-1.40;99.90;;;;;;4359156;32;20864;-62
2023/02/09 08:30:11;;;;;;;0.50;0.50;;;-1.30;99.90;;;;;;4376327;32;20432;-62
2023/02/09 08:32:37;;;;;;;1.45;1.30;;;-1.40;99.90;;;;;;4351546;32;20073;-63
2023/02/09 08:35:03;;;;;;;0.85;0.85;;;-1.30;99.90;;;;;;4362128;32;20105;-63
2023/02/09 08:37:28;;;;;;;0.55;0.55;;;-1.20;99.90;;;;;;4399580;32;20100;-63
2023/02/09 08:39:54;;;;;;;1.35;0.93;;;-1.10;99.90;;;;;;4400336;32;20269;-63
2023/02/09 08:42:19;;;;;;;0.80;0.80;;;-1.00;99.90;;;;;;4387061;32;20082;-63
2023/02/09 08:44:45;;;;;;;0.80;0.80;;;-0.90;99.90;;;;;;4393419;32;20101;-63
2023/02/09 08:47:10;;;;;;;1.95;1.58;;;-0.80;99.90;;;;;;4389970;32;20609;-63
2023/02/09 08:49:35;;;;;;;0.50;0.50;;;-0.70;99.90;;;;;;4377627;32;20185;-63
2023/02/09 08:52:01;;;;;;;0.47;0.47;;;-0.70;99.90;;;;;;4363591;32;20101;-63
2023/02/09 08:54:26;;;;;;;0.93;0.93;;;-0.70;99.90;;;;;;4376606;32;20110;-63
2023/02/09 08:56:52;;;;;;;2.92;1.80;;;-0.60;99.90;;;;;;4386202;32;20897;-63
2023/02/09 08:59:17;;;;;;;1.65;1.52;;;-0.40;99.90;;;;;;4380699;32;20122;-63
2023/02/09 09:01:43;;;;;;;1.85;1.75;;;-0.30;99.90;;;;;;4377679;32;20094;-63
2023/02/09 09:04:09;;;;;;;0.80;0.80;;;-0.30;99.90;;;;;;4372188;32;20131;-63
2023/02/09 09:06:35;;;;;;;0.50;0.50;;;-0.10;99.90;;;;;;4379170;32;20156;-63
2023/02/09 09:09:00;;;;;;;0.50;0.50;;;0.00;99.90;;;;;;4366938;32;20081;-63
2023/02/09 09:11:26;;;;;;;0.82;0.82;;;-0.10;99.90;;;;;;4375916;32;20774;-63
2023/02/09 09:13:52;;;;;;;1.00;1.00;;;0.00;99.90;;;;;;4383219;32;20089;-63
2023/02/09 09:16:20;;;;;;;0.93;0.93;;;0.10;99.90;;;;;;4380081;32;20556;-64
2023/02/09 09:18:46;;;;;;;0.88;0.88;;;0.20;99.90;;;;;;4368907;32;20630;-63
2023/02/09 09:21:14;;;;;;;1.67;1.58;;;0.30;99.90;;;;;;4368707;32;20106;-63
2023/02/09 09:23:39;;;;;;;0.70;0.70;;;0.60;99.90;;;;;;4374220;32;20593;-61
2023/02/09 09:26:05;;;;;;;1.00;0.90;;;0.80;99.90;;;;;;4372482;32;20081;-63
2023/02/09 09:28:30;;;;;;;0.85;0.85;;;1.00;99.90;;;;;;4384364;32;20580;-64
2023/02/09 09:30:58;;;;;;;0.77;0.77;;;1.00;99.90;;;;;;4384987;32;20097;-63
2023/02/09 09:33:24;;;;;;;1.02;1.02;;;1.20;99.90;;;;;;4372804;32;20081;-64
2023/02/09 09:35:49;;;;;;;0.73;0.73;;;1.40;99.90;;;;;;4391611;32;22061;-64
2023/02/09 09:38:14;;;;;;;0.68;0.68;;;1.50;99.90;;;;;;4391631;32;20634;-64
2023/02/09 09:40:44;;;;;;;0.45;0.45;;;1.50;99.90;;;;;;4387394;32;20101;-65
2023/02/09 09:43:36;;;;;;;2.63;1.27;;;1.60;99.90;;;;;;4384932;32;20164;-64
2023/02/09 09:46:02;;;;;;;1.12;0.98;;;1.60;99.90;;;;;;4356554;32;20467;-64
2023/02/09 09:48:41;;;;;;;3.03;1.42;;;1.80;99.90;;;;;;4347812;32;20117;-64
2023/02/09 09:51:33;;;;;;;0.90;0.90;;;1.80;99.90;;;;;;4385846;32;21587;-64
2023/02/09 09:54:02;;;;;;;1.98;0.85;;;1.90;99.90;;;;;;4351505;32;20292;-64
2023/02/09 09:56:29;;;;;;;2.72;1.40;;;1.90;99.90;;;;;;4365785;32;20077;-62
2023/02/09 09:58:56;;;;;;;0.50;0.50;;;2.10;99.90;;;;;;4364433;32;20101;-67
2023/02/09 10:01:22;;;;;;;0.50;0.50;;;2.20;99.90;;;;;;4383008;32;20089;-63
2023/02/09 10:03:48;;;;;;;2.00;1.35;;;2.10;99.90;;;;;;4378121;32;20089;-63
2023/02/09 10:06:20;;;;;;;1.73;1.55;;;2.00;99.90;;;;;;4381665;32;20081;-63
2023/02/09 10:09:05;;;;;;;0.80;0.80;;;2.10;99.90;;;;;;4376640;32;20401;-65
2023/02/09 10:11:39;;;;;;;0.70;0.70;;;2.40;99.90;;;;;;4360324;32;20081;-63
2023/02/09 10:14:05;;;;;;;1.52;1.42;;;2.50;99.90;;;;;;4389617;32;20073;-63
2023/02/09 10:16:33;;;;;;;0.40;0.40;;;2.60;99.90;;;;;;4384832;32;20590;-63
2023/02/09 10:19:01;;;;;;;1.20;1.10;;;2.60;99.90;;;;;;4363937;32;20101;-64
2023/02/09 10:21:31;;;;;;;0.65;0.65;;;2.40;99.90;;;;;;4379739;32;20598;-62
2023/02/09 10:24:03;;;;;;;0.65;0.65;;;2.40;99.90;;;;;;4370044;32;21302;-65
2023/02/09 10:26:31;;;;;;;1.50;1.40;;;2.50;99.90;;;;;;4376208;32;20100;-65
2023/02/09 10:29:15;;;;;;;0.82;0.82;;;2.40;99.90;;;;;;4379412;32;20124;-64
2023/02/09 10:31:45;;;;;;;0.50;0.50;;;2.50;99.90;;;;;;4370911;32;20335;-64
2023/02/09 10:34:15;;;;;;;4.78;1.77;;;2.70;99.90;;;;;;4378143;32;20163;-66
2023/02/09 10:37:20;;;;;;;0.60;0.60;;;2.50;99.90;;;;;;4374795;32;20151;-65
2023/02/09 10:39:54;;;;;;;0.40;0.40;;;2.50;99.90;;;;;;4347640;32;20179;-65
2023/02/09 10:42:27;;;;;;;0.50;0.50;;;2.60;99.90;;;;;;4384104;32;20101;-64
2023/02/09 10:44:56;;;;;;;0.50;0.50;;;2.60;99.90;;;;;;4385880;32;20272;-67
2023/02/09 10:47:26;;;;;;;3.62;1.95;;;2.60;99.90;;;;;;4381790;32;20113;-66
2023/02/09 10:49:55;;;;;;;0.57;0.57;;;2.70;99.90;;;;;;4389085;32;20061;-65
2023/02/09 10:52:23;;;;;;;1.65;1.50;;;2.60;99.90;;;;;;4355775;32;20161;-65
2023/02/09 10:54:55;;;;;;;0.77;0.77;;;2.60;99.90;;;;;;4388374;32;21339;-66
2023/02/09 10:57:32;;;;;;;1.75;0.93;;;2.70;99.90;;;;;;4362504;32;20709;-66
2023/02/09 11:00:01;;;;;;;30.58;1.33;;;2.80;99.90;;;;;;4363162;32;21671;-65
2023/02/09 11:02:37;;;;;;;0.43;0.43;;;2.90;99.90;;;;;;4363669;32;20784;-64
2023/02/09 11:05:23;;;;;;;3.58;1.02;;;3.00;99.90;;;;;;4378780;32;20085;-64
2023/02/09 11:07:58;;;;;;;0.65;0.65;;;3.00;99.90;;;;;;4370621;32;20175;-65
2023/02/09 11:10:26;;;;;;;0.62;0.62;;;3.10;99.90;;;;;;4368578;32;20097;-65
2023/02/09 11:12:51;;;;;;;1.48;1.25;;;3.20;99.90;;;;;;4352677;32;20564;-65
2023/02/09 11:15:25;;;;;;;0.80;0.80;;;3.10;99.90;;;;;;4375599;32;20105;-65
2023/02/09 11:17:59;;;;;;;1.30;1.20;;;3.00;99.90;;;;;;4352731;32;21106;-65
2023/02/09 11:20:34;;;;;;;1.25;1.15;;;2.90;99.90;;;;;;4381014;32;20167;-64
2023/02/09 11:23:36;;;;;;;0.57;0.57;;;3.00;99.90;;;;;;4369206;32;20101;-65
2023/02/09 11:26:13;;;;;;;0.62;0.62;;;3.20;99.90;;;;;;4382653;32;20218;-64
2023/02/09 11:28:50;;;;;;;0.80;0.80;;;3.40;99.90;;;;;;4386894;32;20303;-65
2023/02/09 11:31:34;;;;;;;0.70;0.70;;;3.50;99.90;;;;;;4376632;32;20186;-64
2023/02/09 11:34:40;;;;;;;1.30;1.02;;;3.60;99.90;;;;;;4361825;32;20173;-65
2023/02/09 11:37:45;;;;;;;8.15;0.82;;;3.70;99.90;;;;;;4368257;32;20184;-65
2023/02/09 11:40:24;;;;;;;0.50;0.50;;;4.00;99.90;;;;;;4381896;32;20077;-66
2023/02/09 11:43:30;;;;;;;0.60;0.60;;;4.10;99.90;;;;;;4380390;32;95915;-66
2023/02/09 11:46:01;;;;;;;0.60;0.60;;;4.20;99.90;;;;;;4387703;32;20089;-65
2023/02/09 11:48:30;;;;;;;2.80;1.40;;;4.50;99.90;;;;;;4394856;32;20596;-65
2023/02/09 11:51:06;;;;;;;1.08;1.08;;;4.70;99.90;;;;;;4396204;32;20198;-65
2023/02/09 11:54:02;;;;;;;0.60;0.60;;;4.70;99.90;;;;;;4368145;32;20085;-65
2023/02/09 11:56:29;;;;;;;0.68;0.68;;;4.60;99.90;;;;;;4371897;32;20101;-64
2023/02/09 11:59:08;;;;;;;0.45;0.45;;;5.10;99.90;;;;;;4365209;32;20097;-65
2023/02/09 12:01:41;;;;;;;0.57;0.57;;;5.50;99.80;;;;;;4387401;32;20157;-64
2023/02/09 12:04:46;;;;;;;0.75;0.70;;;5.70;99.40;;;;;;4379502;32;20081;-65
2023/02/09 12:07:51;;;;;;;0.55;0.55;;;5.70;98.70;;;;;;4354647;32;20101;-64
2023/02/09 12:10:48;;;;;;;0.57;0.57;;;5.70;98.30;;;;;;4352102;32;20125;-66
2023/02/09 12:13:53;;;;;;;1.50;1.40;;;5.50;98.80;;;;;;4363523;32;20247;-66
2023/02/09 12:16:24;;;;;;;1.80;1.67;;;5.80;98.80;;;;;;4360195;32;20408;-65
2023/02/09 12:18:53;;;;;;;0.90;0.62;;;6.20;97.80;;;;;;4375123;32;20134;-65
2023/02/09 12:21:31;;;;;;;0.68;0.68;;;6.60;97.30;;;;;;4385264;32;20097;-65
2023/02/09 12:23:57;;;;;;;1.17;0.88;;;6.60;97.50;;;;;;4365553;32;20670;-65
2023/02/09 12:26:43;;;;;;;0.65;0.65;;;6.70;98.00;;;;;;4365355;32;20089;-65
2023/02/09 12:29:33;;;;;;;0.60;0.60;;;7.00;96.60;;;;;;4363088;32;20148;-63
2023/02/09 12:32:08;;;;;;;1.02;0.95;;;7.30;96.00;;;;;;4352713;32;21897;-63
2023/02/09 12:34:48;;;;;;;0.50;0.50;;;6.90;95.90;;;;;;4383370;32;20117;-63
2023/02/09 12:37:17;;;;;;;1.45;0.98;;;6.50;96.50;;;;;;4352591;32;20098;-63
2023/02/09 12:40:10;;;;;;;1.20;1.10;;;6.10;97.30;;;;;;4364221;32;20646;-64
2023/02/09 12:42:43;;;;;;;0.65;0.55;;;6.30;97.50;;;;;;4349508;32;20336;-65
2023/02/09 12:45:31;;;;;;;0.73;0.73;;;6.30;98.10;;;;;;4342298;32;20330;-65
2023/02/09 12:47:59;;;;;;;2.83;0.77;;;6.60;97.40;;;;;;4361651;32;20287;-64
2023/02/09 12:50:31;;;;;;;1.65;1.15;;;7.10;96.90;;;;;;4389045;32;20145;-64
2023/02/09 12:53:25;;;;;;;0.50;0.50;;;7.40;96.30;;;;;;4385965;32;20211;-64
2023/02/09 12:56:09;;;;;;;0.47;0.47;;;7.50;95.90;;;;;;4381960;32;20339;-63
2023/02/09 12:58:38;;;;;;;6.60;1.05;;;7.20;95.30;;;;;;4397017;32;20784;-64
2023/02/09 13:01:04;;;;;;;0.30;0.30;;;6.90;96.30;;;;;;4366107;32;20073;-65
2023/02/09 13:03:37;;;;;;;0.85;0.85;;;7.40;95.50;;;;;;4391364;32;20100;-64
2023/02/09 13:06:28;;;;;;;1.08;0.88;;;7.00;95.80;;;;;;4395433;32;20165;-65
2023/02/09 13:08:57;;;;;;;0.80;0.80;;;7.10;96.10;;;;;;4396001;32;20094;-65